world map with FBMN marked

FBMN - Airport

This information may not be accurate or current and is not valid for navigation or flight planning. No warranty of fitness for any purpose is made or implied.

flag of Botswana

Donate via PayPal

Additional information is available on the NEW Great Circle Mapper

Location
City:  Maun, North-West, Botswana
Name:Maun Airport
ICAO / IATA:FBMN / MUB

Details
Type:Airport (Aerodrome, Airfield)
Latitude:19°58'21"S (-19.972563)
Longitude:23°25'52"E (23.431086)
Datum:WGS 1984
Elevation:3093 ft (943 m)
Runways:1
Longest:6562 × 98 ft (2000 × 30 m)

Time
Timezone:UTC+2 (DST+4)
Local Time:

Weather
METAR:FBMN  041400Z 17010KT 9999 SCT025 FEW030CB SCT070 27/18 Q1015
TAF:FBMN  (expired)

Related Locations
Nearby:
Farthest:KOA: 12414 mi / 19978 km
Kailua/Kona [Ellison Onizuka Kona Intl at Keahole], Hawaii, HI, US

Find:

   beyond  
but within

Other Information
Maps:
Sources:

  


 


Great Circle Mapper   Great Circle Mapper
Great Circle Mapper FAQ   Great Circle Mapper FAQ
  Karl's Home Page
KLSē   KLSē Home
   GC on Facebook
Airlines of the World   Airlines of the World
Donate via PayPal


Copyright © 2004-2019, Karl L. Swartz. All rights reserved.
All trademarks mentioned herein belong to their respective owners.

Please see credits for attribution and copyright information.

Karl Swartz <karl@kls2.com>
  Powered by FreeBSD
Valid HTML 4.01!
Labeled with ICRA
hCard Microformat
Geo Microformat